createdAt,value
2018-02-24T00:00:49.737Z,46.42
2018-02-24T00:03:18.610Z,56.75
2018-02-24T00:05:47.453Z,46.25
2018-02-24T00:08:16.265Z,45.83
2018-02-24T00:10:45.149Z,58.70
2018-02-24T00:13:13.988Z,57.33
2018-02-24T00:15:42.839Z,67.78
2018-02-24T00:18:11.653Z,51.17
2018-02-24T00:20:40.544Z,48.00
2018-02-24T00:23:09.476Z,54.83
2018-02-24T00:25:38.321Z,49.55
2018-02-24T00:28:07.154Z,47.92
2018-02-24T00:30:36.016Z,44.95
2018-02-24T00:33:04.870Z,42.20
2018-02-24T00:35:33.699Z,41.75
2018-02-24T00:38:02.538Z,39.97
2018-02-24T00:40:31.355Z,43.97
2018-02-24T00:43:00.656Z,40.22
2018-02-24T00:45:29.555Z,42.10
2018-02-24T00:47:58.375Z,44.20
2018-02-24T00:50:27.223Z,43.15
2018-02-24T00:52:56.094Z,42.97
2018-02-24T00:55:24.906Z,41.63
2018-02-24T00:57:53.757Z,41.80
2018-02-24T01:00:22.631Z,44.42
2018-02-24T01:02:51.473Z,44.97
2018-02-24T01:05:20.329Z,46.78
2018-02-24T01:07:49.155Z,42.20
2018-02-24T01:10:17.991Z,40.90
2018-02-24T01:12:46.817Z,42.42
2018-02-24T01:15:15.679Z,42.85
2018-02-24T01:17:44.501Z,46.47
2018-02-24T01:20:13.315Z,41.75
2018-02-24T01:22:42.161Z,48.65
2018-02-24T01:25:10.980Z,41.90
2018-02-24T01:27:39.820Z,50.42
2018-02-24T01:30:08.651Z,42.35
2018-02-24T01:32:37.549Z,36.38
2018-02-24T01:35:06.397Z,42.50
2018-02-24T01:37:35.218Z,40.55
2018-02-24T01:40:04.078Z,37.17
2018-02-24T01:42:32.885Z,45.63
2018-02-24T01:45:01.743Z,41.25
2018-02-24T01:47:30.941Z,39.65
2018-02-24T01:49:59.773Z,40.33
2018-02-24T01:52:28.715Z,43.90
2018-02-24T01:54:57.563Z,39.65
2018-02-24T01:57:26.381Z,45.15
2018-02-24T01:59:55.244Z,46.45
2018-02-24T02:02:24.119Z,40.20
2018-02-24T02:04:53.007Z,39.70
2018-02-24T02:07:21.860Z,42.78
2018-02-24T02:09:50.696Z,38.92
2018-02-24T02:12:19.573Z,38.08
2018-02-24T02:14:48.388Z,44.78
2018-02-24T02:17:17.221Z,45.47
2018-02-24T02:19:46.061Z,44.63
2018-02-24T02:22:14.912Z,44.08
2018-02-24T02:24:43.725Z,40.95
2018-02-24T02:27:12.533Z,45.85
2018-02-24T02:29:41.385Z,39.13
2018-02-24T02:32:10.204Z,41.03
2018-02-24T02:34:39.197Z,38.85
2018-02-24T02:37:08.052Z,39.17
2018-02-24T02:39:36.885Z,37.05
2018-02-24T02:42:05.774Z,42.10
2018-02-24T02:44:34.594Z,35.30
2018-02-24T02:47:03.485Z,41.17
2018-02-24T02:49:32.341Z,39.10
2018-02-24T02:52:01.194Z,42.80
2018-02-24T02:54:30.038Z,41.03
2018-02-24T02:56:58.869Z,35.22
2018-02-24T02:59:27.717Z,44.25
2018-02-24T03:01:56.602Z,46.10
2018-02-24T03:04:25.473Z,39.28
2018-02-24T03:06:54.304Z,39.10
2018-02-24T03:09:23.182Z,45.30
2018-02-24T03:11:52.063Z,41.25
2018-02-24T03:14:20.918Z,39.75
2018-02-24T03:16:49.750Z,39.38
2018-02-24T03:19:18.555Z,38.80
2018-02-24T03:21:47.396Z,42.10
2018-02-24T03:24:16.290Z,41.40
2018-02-24T03:26:45.139Z,40.53
2018-02-24T03:29:14.002Z,46.45
2018-02-24T03:31:42.802Z,44.25
2018-02-24T03:34:11.638Z,39.60
2018-02-24T03:36:40.560Z,40.15
2018-02-24T03:39:09.379Z,36.92
2018-02-24T03:41:38.368Z,42.70
2018-02-24T03:44:07.193Z,38.97
2018-02-24T03:46:36.028Z,41.03
2018-02-24T03:49:04.910Z,41.63
2018-02-24T03:51:33.737Z,40.78
2018-02-24T03:54:02.616Z,38.03
2018-02-24T03:56:31.477Z,46.97
2018-02-24T03:59:00.316Z,41.63
2018-02-24T04:01:29.129Z,38.42
2018-02-24T04:03:57.978Z,46.28
2018-02-24T04:06:26.850Z,43.28
2018-02-24T04:08:55.677Z,51.17
2018-02-24T04:11:24.510Z,55.58
2018-02-24T04:13:53.486Z,43.97
2018-02-24T04:16:22.378Z,50.60
2018-02-24T04:18:51.153Z,43.95
2018-02-24T04:21:20.032Z,45.75
2018-02-24T04:23:48.865Z,49.58
2018-02-24T04:26:17.671Z,43.70
2018-02-24T04:28:46.510Z,55.10
2018-02-24T04:31:15.384Z,54.58
2018-02-24T04:33:44.329Z,47.08
2018-02-24T04:36:13.172Z,51.22
2018-02-24T04:38:42.028Z,44.42
2018-02-24T04:41:10.879Z,46.97
2018-02-24T04:43:39.798Z,47.95
2018-02-24T04:46:08.604Z,48.75
2018-02-24T04:48:37.485Z,51.53
2018-02-24T04:51:06.345Z,45.35
2018-02-24T04:53:35.160Z,47.08
2018-02-24T04:56:04.000Z,47.78
2018-02-24T04:58:32.827Z,45.35
2018-02-24T05:01:02.525Z,51.42
2018-02-24T05:03:31.334Z,42.85
2018-02-24T05:06:00.196Z,58.10
2018-02-24T05:08:29.049Z,47.95
2018-02-24T05:10:57.860Z,48.08
2018-02-24T05:13:26.689Z,46.92
2018-02-24T05:15:55.516Z,46.80
2018-02-24T05:18:24.345Z,50.53
2018-02-24T05:20:53.149Z,43.65
2018-02-24T05:23:21.995Z,53.45
2018-02-24T05:25:50.830Z,52.25
2018-02-24T05:28:19.732Z,46.22
2018-02-24T05:30:48.573Z,47.20
2018-02-24T05:33:17.408Z,45.63
2018-02-24T05:35:46.233Z,49.30
2018-02-24T05:38:15.348Z,49.30
2018-02-24T05:40:44.158Z,52.15
2018-02-24T05:43:12.973Z,55.35
2018-02-24T05:45:41.813Z,45.70
2018-02-24T05:48:10.620Z,49.85
2018-02-24T05:50:39.471Z,50.35
2018-02-24T05:53:08.299Z,48.40
2018-02-24T05:55:37.148Z,45.85
2018-02-24T05:58:05.967Z,46.50
2018-02-24T06:00:34.819Z,49.92
2018-02-24T06:03:03.703Z,49.20
2018-02-24T06:05:32.749Z,46.30
2018-02-24T06:08:01.584Z,53.35
2018-02-24T06:10:30.388Z,53.30
2018-02-24T06:12:59.295Z,55.58
2018-02-24T06:15:28.145Z,50.72
2018-02-24T06:17:56.996Z,54.35
2018-02-24T06:20:25.817Z,48.95
2018-02-24T06:22:54.710Z,54.28
2018-02-24T06:25:23.524Z,55.03
2018-02-24T06:27:52.399Z,55.42
2018-02-24T06:30:21.240Z,51.67
2018-02-24T06:32:50.070Z,49.45
2018-02-24T06:35:18.920Z,55.83
2018-02-24T06:37:47.738Z,55.15
2018-02-24T06:40:16.573Z,47.53
2018-02-24T06:42:45.571Z,47.83
2018-02-24T06:45:14.413Z,50.55
2018-02-24T06:47:43.274Z,48.00
2018-02-24T06:50:12.121Z,53.80
2018-02-24T06:52:41.005Z,54.25
2018-02-24T06:55:09.820Z,49.75
2018-02-24T06:57:38.654Z,46.03
2018-02-24T07:00:07.468Z,57.28
2018-02-24T07:02:36.337Z,47.75
2018-02-24T07:05:05.155Z,48.60
2018-02-24T07:07:34.009Z,47.92
2018-02-24T07:10:02.870Z,45.15
2018-02-24T07:12:31.694Z,44.42
2018-02-24T07:15:00.589Z,51.50
2018-02-24T07:17:29.401Z,51.15
2018-02-24T07:19:58.232Z,51.95
2018-02-24T07:22:27.074Z,53.70
2018-02-24T07:24:55.969Z,50.17
2018-02-24T07:27:24.798Z,46.95
2018-02-24T07:29:53.666Z,64.70
2018-02-24T07:32:22.532Z,49.92
2018-02-24T07:34:51.370Z,51.17
2018-02-24T07:37:20.174Z,45.20
2018-02-24T07:39:49.021Z,46.20
2018-02-24T07:42:17.890Z,47.17
2018-02-24T07:44:46.718Z,44.35
2018-02-24T07:47:15.671Z,48.10
2018-02-24T07:49:44.530Z,44.00
2018-02-24T07:52:13.340Z,46.67
2018-02-24T07:54:42.151Z,43.47
2018-02-24T07:57:11.011Z,45.75
2018-02-24T07:59:39.836Z,47.53
2018-02-24T08:02:08.682Z,45.55
2018-02-24T08:04:37.506Z,48.05
2018-02-24T08:07:06.407Z,45.35
2018-02-24T08:09:35.241Z,52.88
2018-02-24T08:12:04.045Z,42.20
2018-02-24T08:14:32.921Z,45.38
2018-02-24T08:17:01.760Z,40.55
2018-02-24T08:19:30.621Z,43.25
2018-02-24T08:21:59.506Z,46.92
2018-02-24T08:24:28.326Z,45.67
2018-02-24T08:26:57.203Z,50.35
2018-02-24T08:29:26.078Z,45.15
2018-02-24T08:31:54.923Z,43.22
2018-02-24T08:34:23.780Z,48.65
2018-02-24T08:36:52.612Z,45.47
2018-02-24T08:39:21.459Z,50.35
2018-02-24T08:41:50.271Z,41.35
2018-02-24T08:44:19.108Z,47.40
2018-02-24T08:46:47.946Z,47.83
2018-02-24T08:49:16.798Z,44.10
2018-02-24T08:51:45.658Z,43.70
2018-02-24T08:54:14.493Z,60.90
2018-02-24T08:56:43.330Z,42.38
2018-02-24T08:59:12.205Z,43.67
2018-02-24T09:01:41.030Z,44.35
2018-02-24T09:04:09.919Z,43.17
2018-02-24T09:06:38.756Z,46.97
2018-02-24T09:09:07.634Z,72.18
2018-02-24T09:11:36.470Z,39.10
2018-02-24T09:14:05.329Z,39.20
2018-02-24T09:16:34.137Z,37.13
2018-02-24T09:19:03.049Z,32.20
2018-02-24T09:21:31.839Z,39.47
2018-02-24T09:24:00.719Z,38.20
2018-02-24T09:26:29.581Z,33.45
2018-02-24T09:28:58.426Z,38.85
2018-02-24T09:31:27.270Z,32.42
2018-02-24T09:33:56.093Z,35.90
2018-02-24T09:36:24.955Z,33.63
2018-02-24T09:38:53.794Z,32.72
2018-02-24T09:41:22.617Z,64.07
2018-02-24T09:43:51.450Z,32.53
2018-02-24T09:46:20.333Z,34.35
2018-02-24T09:48:49.142Z,33.15
2018-02-24T09:51:18.062Z,35.10
2018-02-24T09:53:46.932Z,35.90
2018-02-24T09:56:15.751Z,32.55
2018-02-24T09:58:44.652Z,31.17
2018-02-24T10:01:13.473Z,36.58
2018-02-24T10:03:42.290Z,35.30
2018-02-24T10:06:11.138Z,36.47
2018-02-24T10:08:39.955Z,34.20
2018-02-24T10:11:08.831Z,33.42
2018-02-24T10:13:37.641Z,29.33
2018-02-24T10:16:06.502Z,29.60
2018-02-24T10:18:35.357Z,29.83
2018-02-24T10:21:04.238Z,30.37
2018-02-24T10:23:33.074Z,34.90
2018-02-24T10:26:01.893Z,31.85
2018-02-24T10:28:30.732Z,29.23
2018-02-24T10:30:59.554Z,32.38
2018-02-24T10:33:28.397Z,34.50
2018-02-24T10:35:57.241Z,32.17
2018-02-24T10:38:26.783Z,33.72
2018-02-24T10:40:55.601Z,32.72
2018-02-24T10:43:24.434Z,34.50
2018-02-24T10:45:53.273Z,32.92
2018-02-24T10:48:22.127Z,31.25
2018-02-24T10:50:50.985Z,34.53
2018-02-24T10:53:19.795Z,32.95
2018-02-24T10:55:48.627Z,31.42
2018-02-24T10:58:17.465Z,33.10
2018-02-24T11:00:46.331Z,31.92
2018-02-24T11:03:15.168Z,26.90
2018-02-24T11:05:44.013Z,31.80
2018-02-24T11:08:12.830Z,31.20
2018-02-24T11:10:41.683Z,28.08
2018-02-24T11:13:10.509Z,26.25
2018-02-24T11:15:39.381Z,25.90
2018-02-24T11:18:08.206Z,25.30
2018-02-24T11:20:37.015Z,30.58
2018-02-24T11:23:05.871Z,24.42
2018-02-24T11:25:34.696Z,29.40
2018-02-24T11:28:03.600Z,28.58
2018-02-24T11:30:32.437Z,23.67
2018-02-24T11:33:01.330Z,25.77
2018-02-24T11:35:30.146Z,27.17
2018-02-24T11:37:58.984Z,27.45
2018-02-24T11:40:27.799Z,26.62
2018-02-24T11:42:56.658Z,25.33
2018-02-24T11:45:25.527Z,24.75
2018-02-24T11:47:54.360Z,21.42
2018-02-24T11:50:23.296Z,24.35
2018-02-24T11:52:52.165Z,27.65
2018-02-24T11:55:21.031Z,26.77
2018-02-24T11:57:49.867Z,30.35
2018-02-24T12:00:18.712Z,28.90
2018-02-24T12:02:47.549Z,25.33
2018-02-24T12:05:16.415Z,30.30
2018-02-24T12:07:45.263Z,30.92
2018-02-24T12:10:14.102Z,24.12
2018-02-24T12:12:42.971Z,24.42
2018-02-24T12:15:11.806Z,24.45
2018-02-24T12:17:40.690Z,25.65
2018-02-24T12:20:09.552Z,23.85
2018-02-24T12:22:38.379Z,29.73
2018-02-24T12:25:07.248Z,27.10
2018-02-24T12:27:36.123Z,23.80
2018-02-24T12:30:05.040Z,26.30
2018-02-24T12:32:33.938Z,26.12
2018-02-24T12:35:02.765Z,30.67
2018-02-24T12:37:31.585Z,26.35
2018-02-24T12:40:00.441Z,23.52
2018-02-24T12:42:29.278Z,22.23
2018-02-24T12:44:58.111Z,27.40
2018-02-24T12:47:27.000Z,22.90
2018-02-24T12:49:56.660Z,26.33
2018-02-24T12:52:24.701Z,23.55
2018-02-24T12:54:53.551Z,26.98
2018-02-24T12:57:22.483Z,24.12
2018-02-24T12:59:51.454Z,22.77
2018-02-24T13:02:21.271Z,28.92
2018-02-24T13:04:52.403Z,26.65
2018-02-24T13:07:21.240Z,28.27
2018-02-24T13:09:50.222Z,29.77
2018-02-24T13:12:19.045Z,21.17
2018-02-24T13:14:47.881Z,24.93
2018-02-24T13:17:16.736Z,19.70
2018-02-24T13:19:45.897Z,27.90
2018-02-24T13:22:14.758Z,21.77
2018-02-24T13:24:43.603Z,20.37
2018-02-24T13:27:12.522Z,23.10
2018-02-24T13:29:41.369Z,20.33
2018-02-24T13:32:10.285Z,20.80
2018-02-24T13:34:39.120Z,19.40
2018-02-24T13:37:07.978Z,26.37
2018-02-24T13:39:36.812Z,29.27
2018-02-24T13:42:05.630Z,22.70
2018-02-24T13:44:34.467Z,22.73
2018-02-24T13:47:03.322Z,20.37
2018-02-24T13:49:32.133Z,27.37
2018-02-24T13:52:00.996Z,21.63
2018-02-24T13:54:29.825Z,21.47
2018-02-24T13:56:58.723Z,28.50
2018-02-24T13:59:27.658Z,19.20
2018-02-24T14:01:56.581Z,25.50
2018-02-24T14:04:25.402Z,25.67
2018-02-24T14:06:54.261Z,30.67
2018-02-24T14:09:23.434Z,15.63
2018-02-24T14:11:52.293Z,24.47
2018-02-24T14:14:21.146Z,22.47
2018-02-24T14:16:49.993Z,23.13
2018-02-24T14:19:18.895Z,23.37
2018-02-24T14:21:47.717Z,20.93
2018-02-24T14:24:16.550Z,16.87
2018-02-24T14:26:45.471Z,19.80
2018-02-24T14:29:14.348Z,25.50
2018-02-24T14:31:43.177Z,22.93
2018-02-24T14:34:12.018Z,21.27
2018-02-24T14:36:40.910Z,19.53
2018-02-24T14:39:09.763Z,17.77
2018-02-24T14:41:38.626Z,25.03
2018-02-24T14:44:07.476Z,19.13
2018-02-24T14:46:36.337Z,16.13
2018-02-24T14:49:05.200Z,17.37
2018-02-24T14:51:34.070Z,19.47
2018-02-24T14:54:02.938Z,18.13
2018-02-24T14:56:31.761Z,16.27
2018-02-24T14:59:00.622Z,19.37
2018-02-24T15:01:29.439Z,16.67
2018-02-24T15:03:58.288Z,17.03
2018-02-24T15:06:27.114Z,21.73
2018-02-24T15:08:55.975Z,17.73
2018-02-24T15:11:24.810Z,19.20
2018-02-24T15:13:53.670Z,21.10
2018-02-24T15:16:22.504Z,18.57
2018-02-24T15:18:51.340Z,14.37
2018-02-24T15:21:20.192Z,17.60
2018-02-24T15:23:49.076Z,15.90
2018-02-24T15:26:17.962Z,17.43
2018-02-24T15:28:46.794Z,14.47
2018-02-24T15:31:15.664Z,17.23
2018-02-24T15:33:44.545Z,19.73
2018-02-24T15:36:13.393Z,13.47
2018-02-24T15:38:42.237Z,28.40
2018-02-24T15:41:11.082Z,14.90
2018-02-24T15:43:39.931Z,17.67
2018-02-24T15:46:08.800Z,19.30
2018-02-24T15:48:37.657Z,17.57
2018-02-24T15:51:06.686Z,17.13
2018-02-24T15:53:35.570Z,16.53
2018-02-24T15:56:04.404Z,17.27
2018-02-24T15:58:33.259Z,19.10
2018-02-24T16:01:02.203Z,20.53
2018-02-24T16:03:31.088Z,14.63
2018-02-24T16:06:00.027Z,18.97
2018-02-24T16:08:28.906Z,18.00
2018-02-24T16:10:57.729Z,17.27
2018-02-24T16:13:26.595Z,20.77
2018-02-24T16:15:55.454Z,17.87
2018-02-24T16:18:24.315Z,21.75
2018-02-24T16:20:53.152Z,27.10
2018-02-24T16:23:22.772Z,20.50
2018-02-24T16:25:51.628Z,21.62
2018-02-24T16:28:20.439Z,19.70
2018-02-24T16:30:49.317Z,21.05
2018-02-24T16:33:18.161Z,17.73
2018-02-24T16:35:47.051Z,20.40
2018-02-24T16:38:15.865Z,20.08
2018-02-24T16:40:44.742Z,24.40
2018-02-24T16:43:13.586Z,16.20
2018-02-24T16:45:42.641Z,31.55
2018-02-24T16:48:11.494Z,46.92
2018-02-24T16:50:40.334Z,29.30
2018-02-24T16:53:09.168Z,29.58
2018-02-24T16:55:37.991Z,31.92
2018-02-24T16:58:06.860Z,27.23
2018-02-24T17:00:36.345Z,26.15
2018-02-24T17:03:05.231Z,22.77
2018-02-24T17:05:34.110Z,28.27
2018-02-24T17:08:03.007Z,35.25
2018-02-24T17:10:31.847Z,25.85
2018-02-24T17:13:00.714Z,38.40
2018-02-24T17:15:29.573Z,24.65
2018-02-24T17:17:58.408Z,31.95
2018-02-24T17:20:27.239Z,20.98
2018-02-24T17:22:56.062Z,34.75
2018-02-24T17:25:24.923Z,26.73
2018-02-24T17:27:53.772Z,20.52
2018-02-24T17:30:22.660Z,20.95
2018-02-24T17:32:51.531Z,19.80
2018-02-24T17:35:29.394Z,34.45
2018-02-24T17:37:58.206Z,18.55
2018-02-24T17:40:29.536Z,23.95
2018-02-24T17:45:48.101Z,17.23
2018-02-24T17:48:24.067Z,18.58
2018-02-24T17:59:21.898Z,44.03
2018-02-24T18:01:58.418Z,15.85
2018-02-24T18:04:34.500Z,13.20
2018-02-24T18:07:03.357Z,15.68
2018-02-24T18:09:32.280Z,14.02
2018-02-24T18:12:01.113Z,14.35
2018-02-24T18:14:29.950Z,14.15
2018-02-24T18:16:58.845Z,16.20
2018-02-24T18:19:27.791Z,17.10
2018-02-24T18:21:56.632Z,13.23
2018-02-24T18:24:25.447Z,14.85
2018-02-24T18:26:54.347Z,16.98
2018-02-24T18:29:23.189Z,14.77
2018-02-24T18:31:52.078Z,13.90
2018-02-24T18:34:20.906Z,16.75
2018-02-24T18:36:49.784Z,15.80
2018-02-24T18:39:18.570Z,14.90
2018-02-24T18:41:47.469Z,15.07
2018-02-24T18:44:16.292Z,11.80
2018-02-24T18:46:45.130Z,14.98
2018-02-24T18:49:13.974Z,15.48
2018-02-24T18:51:42.787Z,19.17
2018-02-24T18:54:11.655Z,16.27
2018-02-24T18:56:40.478Z,15.88
2018-02-24T18:59:09.357Z,16.75
2018-02-24T19:01:38.192Z,12.77
2018-02-24T19:04:07.050Z,20.95
2018-02-24T19:06:35.887Z,18.25
2018-02-24T19:09:04.733Z,15.98
2018-02-24T19:11:33.612Z,20.05
2018-02-24T19:14:02.445Z,24.08
2018-02-24T19:16:31.317Z,16.27
2018-02-24T19:19:00.170Z,18.30
2018-02-24T19:21:29.011Z,17.83
2018-02-24T19:23:57.836Z,18.80
2018-02-24T19:26:26.712Z,15.00
2018-02-24T19:28:55.547Z,17.30
2018-02-24T19:31:24.650Z,18.90
2018-02-24T19:33:53.496Z,23.05
2018-02-24T19:36:22.315Z,17.75
2018-02-24T19:38:51.236Z,17.83
2018-02-24T19:41:20.134Z,13.25
2018-02-24T19:43:49.125Z,13.50
2018-02-24T19:46:17.970Z,17.35
2018-02-24T19:48:46.859Z,14.90
2018-02-24T19:51:15.780Z,14.93
2018-02-24T19:53:44.593Z,17.42
2018-02-24T19:56:13.456Z,14.48
2018-02-24T19:58:42.372Z,16.48
2018-02-24T20:01:11.244Z,16.10
2018-02-24T20:03:40.108Z,15.30
2018-02-24T20:06:09.020Z,16.02
2018-02-24T20:08:37.914Z,15.65
2018-02-24T20:11:06.830Z,20.70
2018-02-24T20:13:35.712Z,34.92
2018-02-24T20:16:04.535Z,33.88
2018-02-24T20:18:33.401Z,17.00
2018-02-24T20:21:02.266Z,21.45
2018-02-24T20:23:31.112Z,25.70
2018-02-24T20:25:59.968Z,28.92
2018-02-24T20:28:28.942Z,23.75
2018-02-24T20:30:57.782Z,26.85
2018-02-24T20:33:26.612Z,18.25
2018-02-24T20:35:55.488Z,21.20
2018-02-24T20:38:24.338Z,17.45
2018-02-24T20:40:53.196Z,17.95
2018-02-24T20:43:22.051Z,18.55
2018-02-24T20:45:50.869Z,15.05
2018-02-24T20:48:19.781Z,15.15
2018-02-24T20:50:48.615Z,17.95
2018-02-24T20:53:17.520Z,11.20
2018-02-24T20:55:46.324Z,13.95
2018-02-24T20:58:15.250Z,12.07
2018-02-24T21:00:44.097Z,12.90
2018-02-24T21:03:12.970Z,11.90
2018-02-24T21:05:41.792Z,13.38
2018-02-24T21:08:10.618Z,13.95
2018-02-24T21:10:39.500Z,12.20
2018-02-24T21:13:08.329Z,11.90
2018-02-24T21:15:37.174Z,12.00
2018-02-24T21:18:06.002Z,14.13
2018-02-24T21:20:34.931Z,19.08
2018-02-24T21:23:03.742Z,16.30
2018-02-24T21:25:32.631Z,11.75
2018-02-24T21:28:01.463Z,13.77
2018-02-24T21:30:30.326Z,15.05
2018-02-24T21:32:59.194Z,16.15
2018-02-24T21:35:28.018Z,16.67
2018-02-24T21:37:56.845Z,12.77
2018-02-24T21:40:25.703Z,13.05
2018-02-24T21:42:54.525Z,14.55
2018-02-24T21:45:23.378Z,24.80
2018-02-24T21:47:52.238Z,26.33
2018-02-24T21:50:21.068Z,18.10
2018-02-24T21:52:49.962Z,14.23
2018-02-24T21:55:18.833Z,13.27
2018-02-24T21:57:47.676Z,12.90
2018-02-24T22:00:16.507Z,16.00
2018-02-24T22:02:45.397Z,16.40
2018-02-24T22:05:14.325Z,12.65
2018-02-24T22:07:43.160Z,13.77
2018-02-24T22:10:11.983Z,14.90
2018-02-24T22:12:40.950Z,9.63
2018-02-24T22:15:09.749Z,12.43
2018-02-24T22:17:38.630Z,11.82
2018-02-24T22:20:07.467Z,12.50
2018-02-24T22:22:36.308Z,13.18
2018-02-24T22:25:05.141Z,14.43
2018-02-24T22:27:34.018Z,9.35
2018-02-24T22:30:02.844Z,15.00
2018-02-24T22:32:31.678Z,17.42
2018-02-24T22:35:00.518Z,19.05
2018-02-24T22:37:29.352Z,11.48
2018-02-24T22:39:58.227Z,12.43
2018-02-24T22:42:27.131Z,20.45
2018-02-24T22:44:55.966Z,12.02
2018-02-24T22:47:25.367Z,9.57
2018-02-24T22:49:54.224Z,11.10
2018-02-24T22:52:23.044Z,10.45
2018-02-24T22:54:51.870Z,19.83
2018-02-24T22:57:20.726Z,36.92
2018-02-24T22:59:49.558Z,15.20
2018-02-24T23:02:18.409Z,29.45
2018-02-24T23:04:47.226Z,21.17
2018-02-24T23:07:16.058Z,12.93
2018-02-24T23:09:44.884Z,21.90
2018-02-24T23:12:13.689Z,24.30
2018-02-24T23:14:42.589Z,14.57
2018-02-24T23:17:11.413Z,18.45
2018-02-24T23:19:40.284Z,32.42
2018-02-24T23:22:09.105Z,23.48
2018-02-24T23:24:37.977Z,30.88
2018-02-24T23:27:06.784Z,22.77
2018-02-24T23:29:35.617Z,15.52
2018-02-24T23:32:04.425Z,17.73
2018-02-24T23:34:33.358Z,15.13
2018-02-24T23:37:02.186Z,28.38
2018-02-24T23:39:31.029Z,33.90
2018-02-24T23:41:59.890Z,13.77
2018-02-24T23:44:28.778Z,14.75
2018-02-24T23:46:58.172Z,24.65
2018-02-24T23:49:26.988Z,18.90
2018-02-24T23:51:55.846Z,14.25
2018-02-24T23:54:24.666Z,19.02
2018-02-24T23:56:53.513Z,13.40
2018-02-24T23:59:22.341Z,15.73
